Terminal Aerodrome Forecast
Issued by NWS Melbourne, FL

Home | Current Version | Previous Version | Text Only | Print | Product List | Glossary On
Versions: 1 2 3 4 5 6 7 8 9 10 11 12 13 14
000
FTUS42 KMLB 102300
TAFDAB
TAF
KDAB 102320Z 1100/1124 17006KT P6SM VCSH SCT050 SCT150 OVC250
     FM110200 00000KT P6SM BKN250
     FM111300 16005KT P6SM FEW025 SCT250
     FM111600 11008KT P6SM SCT040 SCT150 BKN250=

USA.gov is the U.S. government's official web portal to all federal, state and local government web resources and services.